createdAt,value
2022-08-28T00:00:41.752Z,9.45
2022-08-28T00:03:11.283Z,9.40
2022-08-28T00:05:40.039Z,8.38
2022-08-28T00:08:09.153Z,8.27
2022-08-28T00:10:40.021Z,7.72
2022-08-28T00:13:08.020Z,9.77
2022-08-28T00:15:38.975Z,9.02
2022-08-28T00:18:07.741Z,9.88
2022-08-28T00:20:35.376Z,7.38
2022-08-28T00:23:03.205Z,7.13
2022-08-28T00:25:30.689Z,10.35
2022-08-28T00:28:00.103Z,8.38
2022-08-28T00:30:30.413Z,7.65
2022-08-28T00:33:01.711Z,10.93
2022-08-28T00:35:28.983Z,10.15
2022-08-28T00:37:57.956Z,7.75
2022-08-28T00:40:28.807Z,7.85
2022-08-28T00:43:00.429Z,9.43
2022-08-28T00:45:27.589Z,9.35
2022-08-28T00:47:54.304Z,9.82
2022-08-28T00:50:24.511Z,6.72
2022-08-28T00:52:59.867Z,7.15
2022-08-28T00:55:28.574Z,9.73
2022-08-28T00:57:59.152Z,7.40
2022-08-28T01:00:35.850Z,10.10
2022-08-28T01:03:04.141Z,7.65
2022-08-28T01:05:31.353Z,7.25
2022-08-28T01:07:59.095Z,6.38
2022-08-28T01:10:30.581Z,9.15
2022-08-28T01:12:58.034Z,8.77
2022-08-28T01:15:28.433Z,9.02
2022-08-28T01:18:11.940Z,5.85
2022-08-28T01:20:45.307Z,5.88
2022-08-28T01:23:39.836Z,7.43
2022-08-28T01:26:11.641Z,8.95
2022-08-28T01:28:39.324Z,8.20
2022-08-28T01:31:06.355Z,5.50
2022-08-28T01:33:36.101Z,7.43
2022-08-28T01:36:07.628Z,8.52
2022-08-28T01:38:34.378Z,8.70
2022-08-28T01:41:01.053Z,7.30
2022-08-28T01:43:28.061Z,7.60
2022-08-28T01:45:57.797Z,5.55
2022-08-28T01:48:26.136Z,10.25
2022-08-28T01:50:53.061Z,6.28
2022-08-28T01:53:24.811Z,7.35
2022-08-28T01:55:53.739Z,6.80
2022-08-28T01:58:21.592Z,8.57
2022-08-28T02:00:48.665Z,11.05
2022-08-28T02:03:15.589Z,6.93
2022-08-28T02:05:43.152Z,8.15
2022-08-28T02:08:10.331Z,7.38
2022-08-28T02:10:38.922Z,6.32
2022-08-28T02:13:08.121Z,6.68
2022-08-28T02:15:36.398Z,6.35
2022-08-28T02:18:03.633Z,6.72
2022-08-28T02:20:31.208Z,10.02
2022-08-28T02:22:58.521Z,8.90
2022-08-28T02:25:25.964Z,8.15
2022-08-28T02:27:52.874Z,8.43
2022-08-28T02:30:20.423Z,7.05
2022-08-28T02:32:47.588Z,10.10
2022-08-28T02:35:16.902Z,7.57
2022-08-28T02:37:44.484Z,6.78
2022-08-28T02:40:15.842Z,6.20
2022-08-28T02:42:43.409Z,5.30
2022-08-28T02:45:12.029Z,6.97
2022-08-28T02:47:40.975Z,7.20
2022-08-28T02:50:09.027Z,8.20
2022-08-28T02:52:37.395Z,6.10
2022-08-28T02:55:08.692Z,6.50
2022-08-28T02:57:35.730Z,6.00
2022-08-28T03:00:04.981Z,6.18
2022-08-28T03:02:31.817Z,7.40
2022-08-28T03:04:59.807Z,8.93
2022-08-28T03:07:28.238Z,6.55
2022-08-28T03:09:55.648Z,6.20
2022-08-28T03:12:25.487Z,9.50
2022-08-28T03:14:53.641Z,6.75
2022-08-28T03:17:22.049Z,7.43
2022-08-28T03:19:50.170Z,6.80
2022-08-28T03:22:18.104Z,7.22
2022-08-28T03:24:45.018Z,7.13
2022-08-28T03:27:11.796Z,6.28
2022-08-28T03:29:38.565Z,6.85
2022-08-28T03:32:05.349Z,8.25
2022-08-28T03:34:33.520Z,6.65
2022-08-28T03:37:01.199Z,6.40
2022-08-28T03:39:27.961Z,6.05
2022-08-28T03:41:54.958Z,6.85
2022-08-28T03:44:21.716Z,6.40
2022-08-28T03:46:48.474Z,5.45
2022-08-28T03:49:15.816Z,6.25
2022-08-28T03:51:43.816Z,10.52
2022-08-28T03:54:10.641Z,5.85
2022-08-28T03:56:37.525Z,7.45
2022-08-28T03:59:05.373Z,9.10
2022-08-28T04:01:33.493Z,4.93
2022-08-28T04:04:00.538Z,6.00
2022-08-28T04:06:27.995Z,5.80
2022-08-28T04:08:55.341Z,6.05
2022-08-28T04:11:27.019Z,5.47
2022-08-28T04:13:53.748Z,7.25
2022-08-28T04:16:20.498Z,9.57
2022-08-28T04:18:49.002Z,5.03
2022-08-28T04:21:21.526Z,6.05
2022-08-28T04:23:48.433Z,5.40
2022-08-28T04:26:20.577Z,4.88
2022-08-28T04:28:48.038Z,4.53
2022-08-28T04:31:15.949Z,6.35
2022-08-28T04:33:42.863Z,7.75
2022-08-28T04:36:16.944Z,5.78
2022-08-28T04:38:44.277Z,8.50
2022-08-28T04:41:13.350Z,8.05
2022-08-28T04:43:40.255Z,6.30
2022-08-28T04:46:09.187Z,7.53
2022-08-28T04:48:36.357Z,5.32
2022-08-28T04:51:05.791Z,5.20
2022-08-28T04:53:33.047Z,7.20
2022-08-28T04:56:00.634Z,4.95
2022-08-28T04:58:27.959Z,7.30
2022-08-28T05:00:55.187Z,6.22
2022-08-28T05:03:22.920Z,6.57
2022-08-28T05:05:54.136Z,7.55
2022-08-28T05:08:26.837Z,7.57
2022-08-28T05:10:54.993Z,7.43
2022-08-28T05:13:22.508Z,6.35
2022-08-28T05:15:51.810Z,6.82
2022-08-28T05:18:21.754Z,7.35
2022-08-28T05:20:48.687Z,6.80
2022-08-28T05:23:16.565Z,6.13
2022-08-28T05:25:46.237Z,6.32
2022-08-28T05:28:14.050Z,8.35
2022-08-28T05:30:41.999Z,5.97
2022-08-28T05:33:09.521Z,6.20
2022-08-28T05:35:39.593Z,6.53
2022-08-28T05:38:07.581Z,4.20
2022-08-28T05:40:39.888Z,6.88
2022-08-28T05:43:06.561Z,6.25
2022-08-28T05:45:33.258Z,5.82
2022-08-28T05:47:59.983Z,7.10
2022-08-28T05:50:26.717Z,5.22
2022-08-28T05:52:53.479Z,5.40
2022-08-28T05:55:24.254Z,5.10
2022-08-28T05:57:51.346Z,5.28
2022-08-28T06:00:18.428Z,4.68
2022-08-28T06:02:45.141Z,5.00
2022-08-28T06:05:13.035Z,5.95
2022-08-28T06:07:41.155Z,5.88
2022-08-28T06:10:10.506Z,6.47
2022-08-28T06:12:37.892Z,5.78
2022-08-28T06:15:05.568Z,6.78
2022-08-28T06:17:32.297Z,6.00
2022-08-28T06:19:59.000Z,4.78
2022-08-28T06:22:25.679Z,7.93
2022-08-28T06:24:52.371Z,8.32
2022-08-28T06:27:19.049Z,5.32
2022-08-28T06:29:45.797Z,11.68
2022-08-28T06:32:13.227Z,11.18
2022-08-28T06:34:40.020Z,7.30
2022-08-28T06:37:07.903Z,7.18
2022-08-28T06:39:34.554Z,6.65
2022-08-28T06:42:01.317Z,9.90
2022-08-28T06:44:28.052Z,7.53
2022-08-28T06:46:54.995Z,9.23
2022-08-28T06:49:22.113Z,7.90
2022-08-28T06:51:49.330Z,6.57
2022-08-28T06:54:22.161Z,13.60
2022-08-28T06:56:50.626Z,7.03
2022-08-28T06:59:17.329Z,8.20
2022-08-28T07:01:44.080Z,9.07
2022-08-28T07:04:12.168Z,6.47
2022-08-28T07:06:41.544Z,7.53
2022-08-28T07:09:13.404Z,10.40
2022-08-28T07:11:43.535Z,7.72
2022-08-28T07:14:10.285Z,7.47
2022-08-28T07:16:39.149Z,5.70
2022-08-28T07:19:07.334Z,9.98
2022-08-28T07:21:38.749Z,4.80
2022-08-28T07:24:07.150Z,6.75
2022-08-28T07:26:35.732Z,7.30
2022-08-28T07:29:10.829Z,6.57
2022-08-28T07:31:41.196Z,8.23
2022-08-28T07:34:09.741Z,6.88
2022-08-28T07:36:37.067Z,9.38
2022-08-28T07:39:05.204Z,5.30
2022-08-28T07:41:35.375Z,9.73
2022-08-28T07:44:20.629Z,7.25
2022-08-28T07:46:47.423Z,5.88
2022-08-28T07:49:18.369Z,8.80
2022-08-28T07:51:47.101Z,6.03
2022-08-28T07:54:16.884Z,7.35
2022-08-28T07:56:45.859Z,4.70
2022-08-28T07:59:13.958Z,8.65
2022-08-28T08:01:49.095Z,6.93
2022-08-28T08:04:18.103Z,10.32
2022-08-28T08:06:46.781Z,4.70
2022-08-28T08:09:16.185Z,7.22
2022-08-28T08:11:43.002Z,7.45
2022-08-28T08:14:10.638Z,3.88
2022-08-28T08:16:40.858Z,5.90
2022-08-28T08:19:13.988Z,8.55
2022-08-28T08:21:43.270Z,6.00
2022-08-28T08:24:10.527Z,3.78
2022-08-28T08:26:58.998Z,6.20
2022-08-28T08:29:32.377Z,9.67
2022-08-28T08:32:05.412Z,10.15
2022-08-28T08:34:36.279Z,10.55
2022-08-28T08:37:03.013Z,5.28
2022-08-28T08:39:29.688Z,4.13
2022-08-28T08:42:00.606Z,6.03
2022-08-28T08:44:33.499Z,5.38
2022-08-28T08:47:14.023Z,5.25
2022-08-28T08:49:58.371Z,7.07
2022-08-28T08:52:31.348Z,5.70
2022-08-28T08:55:27.827Z,5.20
2022-08-28T08:58:07.690Z,5.50
2022-08-28T09:00:42.821Z,5.40
2022-08-28T09:03:22.927Z,6.28
2022-08-28T09:05:58.812Z,3.78
2022-08-28T09:08:45.737Z,3.40
2022-08-28T09:11:31.680Z,3.35
2022-08-28T09:14:15.204Z,5.32
2022-08-28T09:16:46.990Z,7.28
2022-08-28T09:19:18.665Z,5.35
2022-08-28T09:21:46.125Z,4.47
2022-08-28T09:24:32.052Z,5.47
2022-08-28T09:27:00.842Z,5.95
2022-08-28T09:29:32.893Z,4.63
2022-08-28T09:32:23.629Z,3.88
2022-08-28T09:35:16.389Z,4.68
2022-08-28T09:37:44.160Z,3.17
2022-08-28T09:40:13.866Z,4.82
2022-08-28T09:42:59.072Z,6.63
2022-08-28T09:45:28.785Z,5.63
2022-08-28T09:47:56.534Z,3.67
2022-08-28T09:50:38.640Z,5.93
2022-08-28T09:53:14.118Z,4.13
2022-08-28T09:55:56.097Z,4.00
2022-08-28T09:58:26.994Z,4.00
2022-08-28T10:01:02.433Z,6.82
2022-08-28T10:03:53.607Z,3.78
2022-08-28T10:06:32.908Z,5.45
2022-08-28T10:09:06.021Z,3.38
2022-08-28T10:11:53.989Z,2.25
2022-08-28T10:14:45.763Z,4.85
2022-08-28T10:17:29.994Z,2.03
2022-08-28T10:20:17.558Z,4.10
2022-08-28T10:23:15.726Z,2.92
2022-08-28T10:25:59.486Z,3.63
2022-08-28T10:28:36.341Z,4.05
2022-08-28T10:31:28.350Z,5.60
2022-08-28T10:34:17.186Z,1.98
2022-08-28T10:36:49.092Z,5.85
2022-08-28T10:39:15.722Z,3.58
2022-08-28T10:41:54.352Z,2.67
2022-08-28T10:44:43.574Z,4.80
2022-08-28T10:47:11.994Z,3.47
2022-08-28T10:49:42.254Z,5.63
2022-08-28T10:52:10.821Z,3.60
2022-08-28T10:54:48.133Z,5.45
2022-08-28T10:57:23.847Z,4.60
2022-08-28T10:59:53.252Z,2.55
2022-08-28T11:02:22.501Z,3.50
2022-08-28T11:04:49.429Z,5.00
2022-08-28T11:07:36.957Z,2.53
2022-08-28T11:10:48.428Z,3.55
2022-08-28T11:13:37.808Z,4.63
2022-08-28T11:16:13.128Z,3.92
2022-08-28T11:19:04.158Z,2.85
2022-08-28T11:21:40.309Z,5.20
2022-08-28T11:24:21.241Z,2.53
2022-08-28T11:27:04.125Z,2.20
2022-08-28T11:30:01.587Z,3.58
2022-08-28T11:32:31.057Z,3.17
2022-08-28T11:35:04.973Z,2.92
2022-08-28T11:37:44.037Z,3.30
2022-08-28T11:40:18.942Z,3.65
2022-08-28T11:42:49.639Z,2.25
2022-08-28T11:45:40.775Z,4.40
2022-08-28T11:48:34.515Z,2.67
2022-08-28T11:51:09.572Z,3.17
2022-08-28T11:53:36.204Z,3.50
2022-08-28T11:56:16.023Z,4.15
2022-08-28T11:59:16.152Z,4.20
2022-08-28T12:01:43.866Z,1.92
2022-08-28T12:04:18.249Z,3.95
2022-08-28T12:06:44.997Z,3.42
2022-08-28T12:09:33.138Z,2.60
2022-08-28T12:12:20.647Z,2.67
2022-08-28T12:14:47.252Z,3.58
2022-08-28T12:17:20.271Z,2.58
2022-08-28T12:20:10.325Z,3.75
2022-08-28T12:22:53.136Z,2.75
2022-08-28T12:25:42.138Z,2.25
2022-08-28T12:28:45.994Z,4.13
2022-08-28T12:31:47.893Z,3.80
2022-08-28T12:34:31.432Z,3.75
2022-08-28T12:37:00.447Z,3.88
2022-08-28T12:39:29.691Z,2.72
2022-08-28T12:41:58.726Z,1.77
2022-08-28T12:44:29.596Z,4.95
2022-08-28T12:46:57.021Z,3.03
2022-08-28T12:49:42.138Z,2.72
2022-08-28T12:52:17.080Z,2.97
2022-08-28T12:54:48.281Z,3.25
2022-08-28T12:57:23.017Z,2.00
2022-08-28T13:00:06.450Z,2.60
2022-08-28T13:02:34.598Z,1.88
2022-08-28T13:05:05.447Z,2.47
2022-08-28T13:07:38.130Z,3.08
2022-08-28T13:10:23.995Z,2.05
2022-08-28T13:13:00.862Z,4.22
2022-08-28T13:16:06.110Z,3.45
2022-08-28T13:19:06.586Z,2.17
2022-08-28T13:21:35.138Z,2.90
2022-08-28T13:24:22.063Z,2.83
2022-08-28T13:26:59.127Z,3.63
2022-08-28T13:29:26.332Z,3.00
2022-08-28T13:32:17.499Z,3.28
2022-08-28T13:35:12.841Z,2.08
2022-08-28T13:38:01.483Z,2.30
2022-08-28T13:40:56.768Z,3.50
2022-08-28T13:43:18.920Z,3.33
2022-08-28T13:45:48.617Z,2.38
2022-08-28T13:48:20.001Z,4.55
2022-08-28T13:53:18.981Z,4.40
2022-08-28T13:55:48.274Z,3.08
2022-08-28T13:58:15.740Z,2.65
2022-08-28T14:00:45.875Z,2.30
2022-08-28T14:03:31.038Z,3.42
2022-08-28T14:05:57.770Z,2.30
2022-08-28T14:08:24.966Z,3.80
2022-08-28T14:10:52.045Z,2.63
2022-08-28T14:13:19.812Z,3.83
2022-08-28T14:15:47.464Z,3.92
2022-08-28T14:18:14.289Z,3.28
2022-08-28T14:20:41.297Z,3.50
2022-08-28T14:23:11.464Z,2.30
2022-08-28T14:25:46.553Z,2.08
2022-08-28T14:28:14.570Z,3.22
2022-08-28T14:30:45.987Z,6.47
2022-08-28T14:35:41.912Z,4.00
2022-08-28T14:38:10.966Z,2.85
2022-08-28T14:40:39.338Z,3.15
2022-08-28T14:43:07.334Z,2.58
2022-08-28T14:45:40.995Z,3.10
2022-08-28T14:48:09.479Z,3.45
2022-08-28T14:50:44.098Z,2.97
2022-08-28T14:53:11.894Z,3.20
2022-08-28T14:55:40.996Z,4.63
2022-08-28T14:58:07.751Z,3.20
2022-08-28T15:00:42.649Z,6.57
2022-08-28T15:03:09.681Z,4.82
2022-08-28T15:05:36.521Z,4.75
2022-08-28T15:08:06.665Z,4.30
2022-08-28T15:10:33.770Z,4.88
2022-08-28T15:13:00.438Z,3.88
2022-08-28T15:15:27.133Z,4.38
2022-08-28T15:17:53.834Z,4.82
2022-08-28T15:20:20.564Z,2.10
2022-08-28T15:22:47.298Z,3.47
2022-08-28T15:25:14.369Z,3.53
2022-08-28T15:27:41.106Z,4.65
2022-08-28T15:30:08.262Z,4.43
2022-08-28T15:32:35.088Z,2.30
2022-08-28T15:35:01.791Z,4.15
2022-08-28T15:37:29.416Z,4.53
2022-08-28T15:40:17.058Z,5.22
2022-08-28T15:42:44.343Z,3.65
2022-08-28T15:45:12.185Z,4.55
2022-08-28T15:47:38.886Z,3.47
2022-08-28T15:50:06.846Z,4.47
2022-08-28T15:52:33.545Z,4.30
2022-08-28T15:55:00.372Z,3.17
2022-08-28T15:57:27.123Z,3.65
2022-08-28T15:59:54.386Z,4.07
2022-08-28T16:02:23.249Z,4.15
2022-08-28T16:04:50.524Z,2.15
2022-08-28T16:07:18.803Z,4.90
2022-08-28T16:09:46.322Z,2.85
2022-08-28T16:12:13.305Z,2.63
2022-08-28T16:14:40.216Z,5.47
2022-08-28T16:17:10.747Z,2.95
2022-08-28T16:19:39.624Z,3.42
2022-08-28T16:22:07.150Z,3.83
2022-08-28T16:24:35.181Z,3.90
2022-08-28T16:27:02.268Z,4.57
2022-08-28T16:29:28.961Z,3.58
2022-08-28T16:31:56.681Z,5.45
2022-08-28T16:34:27.068Z,2.78
2022-08-28T16:36:56.152Z,4.15
2022-08-28T16:39:22.850Z,3.25
2022-08-28T16:41:50.214Z,3.35
2022-08-28T16:44:21.316Z,3.10
2022-08-28T16:46:48.515Z,2.67
2022-08-28T16:49:15.511Z,3.70
2022-08-28T16:51:42.196Z,2.55
2022-08-28T16:54:08.957Z,3.60
2022-08-28T16:56:35.706Z,2.42
2022-08-28T16:59:02.610Z,4.10
2022-08-28T17:01:29.610Z,3.33
2022-08-28T17:03:56.366Z,2.20
2022-08-28T17:06:27.514Z,3.85
2022-08-28T17:08:57.092Z,3.97
2022-08-28T17:11:25.874Z,2.58
2022-08-28T17:13:52.654Z,2.75
2022-08-28T17:16:20.513Z,3.10
2022-08-28T17:18:48.373Z,4.32
2022-08-28T17:21:37.318Z,3.75
2022-08-28T17:24:04.126Z,2.70
2022-08-28T17:26:30.806Z,4.00
2022-08-28T17:28:57.471Z,4.82
2022-08-28T17:31:24.207Z,4.15
2022-08-28T17:33:51.493Z,2.88
2022-08-28T17:36:21.435Z,2.65
2022-08-28T17:39:04.265Z,2.50
2022-08-28T17:41:31.961Z,3.30
2022-08-28T17:44:00.057Z,2.63
2022-08-28T17:46:26.805Z,3.50
2022-08-28T17:48:55.745Z,3.40
2022-08-28T17:51:41.908Z,3.55
2022-08-28T17:54:12.910Z,2.33
2022-08-28T17:56:40.184Z,4.25
2022-08-28T17:59:07.148Z,2.22
2022-08-28T18:01:34.155Z,4.78
2022-08-28T18:04:01.065Z,4.00
2022-08-28T18:06:27.758Z,3.10
2022-08-28T18:08:54.472Z,4.10
2022-08-28T18:11:21.152Z,2.85
2022-08-28T18:13:47.854Z,2.65
2022-08-28T18:16:14.778Z,3.10
2022-08-28T18:18:42.074Z,3.90
2022-08-28T18:21:12.837Z,4.28
2022-08-28T18:23:40.120Z,3.25
2022-08-28T18:26:08.248Z,4.10
2022-08-28T18:28:35.033Z,6.68
2022-08-28T18:31:02.587Z,3.97
2022-08-28T18:33:29.692Z,6.13
2022-08-28T18:35:57.013Z,3.28
2022-08-28T18:38:27.782Z,3.03
2022-08-28T18:40:55.682Z,3.22
2022-08-28T18:43:22.636Z,3.13
2022-08-28T18:45:49.457Z,3.92
2022-08-28T18:48:16.410Z,2.85
2022-08-28T18:50:46.312Z,4.25
2022-08-28T18:53:18.123Z,3.65
2022-08-28T18:58:15.073Z,7.13
2022-08-28T19:00:42.586Z,2.50
2022-08-28T19:03:10.301Z,2.70
2022-08-28T19:05:37.974Z,5.30
2022-08-28T19:08:05.223Z,4.65
2022-08-28T19:10:34.736Z,4.85
2022-08-28T19:13:02.129Z,4.65
2022-08-28T19:15:29.140Z,2.63
2022-08-28T19:17:56.001Z,2.95
2022-08-28T19:20:22.899Z,2.78
2022-08-28T19:22:49.870Z,5.07
2022-08-28T19:25:28.473Z,3.95
2022-08-28T19:28:01.367Z,4.03
2022-08-28T19:30:32.757Z,2.90
2022-08-28T19:33:00.954Z,3.65
2022-08-28T19:35:27.733Z,1.80
2022-08-28T19:37:54.522Z,2.50
2022-08-28T19:40:21.636Z,5.15
2022-08-28T19:42:49.992Z,4.65
2022-08-28T19:45:17.034Z,2.88
2022-08-28T19:47:44.119Z,4.07
2022-08-28T19:50:12.658Z,2.60
2022-08-28T19:52:39.404Z,3.00
2022-08-28T19:55:07.086Z,7.45
2022-08-28T19:57:34.578Z,2.97
2022-08-28T20:00:01.934Z,3.53
2022-08-28T20:02:29.377Z,3.70
2022-08-28T20:04:56.170Z,3.25
2022-08-28T20:07:24.814Z,4.18
2022-08-28T20:09:52.108Z,4.78
2022-08-28T20:12:19.599Z,2.65
2022-08-28T20:14:46.540Z,2.78
2022-08-28T20:17:14.051Z,4.43
2022-08-28T20:19:41.274Z,3.35
2022-08-28T20:22:08.311Z,4.25
2022-08-28T20:24:35.255Z,2.88
2022-08-28T20:27:02.031Z,3.45
2022-08-28T20:29:29.172Z,3.00
2022-08-28T20:31:56.140Z,5.22
2022-08-28T20:34:24.190Z,2.63
2022-08-28T20:36:51.300Z,3.53
2022-08-28T20:39:18.926Z,4.00
2022-08-28T20:41:46.273Z,4.18
2022-08-28T20:44:16.794Z,4.07
2022-08-28T20:46:44.085Z,5.03
2022-08-28T20:49:18.577Z,4.65
2022-08-28T20:51:56.530Z,3.80
2022-08-28T20:54:36.972Z,6.47
2022-08-28T20:57:08.256Z,6.78
2022-08-28T20:59:40.046Z,3.60
2022-08-28T21:02:17.966Z,4.82
2022-08-28T21:04:45.949Z,3.50
2022-08-28T21:07:14.832Z,3.28
2022-08-28T21:10:05.373Z,7.30
2022-08-28T21:12:28.740Z,6.82
2022-08-28T21:14:55.457Z,6.38
2022-08-28T21:17:29.579Z,3.50
2022-08-28T21:20:00.914Z,6.10
2022-08-28T21:22:29.086Z,5.00
2022-08-28T21:24:55.832Z,3.50
2022-08-28T21:27:22.517Z,4.72
2022-08-28T21:29:49.207Z,4.20
2022-08-28T21:32:17.019Z,6.30
2022-08-28T21:34:43.780Z,6.40
2022-08-28T21:37:10.459Z,5.07
2022-08-28T21:39:37.110Z,3.83
2022-08-28T21:42:03.906Z,7.05
2022-08-28T21:44:30.653Z,5.97
2022-08-28T21:46:58.954Z,6.63
2022-08-28T21:49:26.001Z,5.90
2022-08-28T21:51:52.988Z,4.70
2022-08-28T21:54:19.725Z,3.63
2022-08-28T21:56:46.515Z,6.15
2022-08-28T21:59:15.468Z,3.42
2022-08-28T22:01:42.250Z,4.82
2022-08-28T22:04:09.843Z,6.55
2022-08-28T22:06:36.534Z,5.20
2022-08-28T22:09:05.180Z,3.60
2022-08-28T22:11:33.511Z,4.63
2022-08-28T22:14:01.064Z,3.72
2022-08-28T22:16:28.568Z,6.20
2022-08-28T22:18:55.313Z,4.50
2022-08-28T22:21:44.729Z,3.75
2022-08-28T22:24:13.267Z,4.18
2022-08-28T22:26:41.949Z,7.68
2022-08-28T22:29:09.732Z,4.75
2022-08-28T22:31:37.245Z,3.17
2022-08-28T22:34:12.177Z,6.68
2022-08-28T22:36:39.281Z,4.47
2022-08-28T22:39:05.949Z,4.97
2022-08-28T22:41:32.960Z,7.85
2022-08-28T22:43:59.750Z,3.67
2022-08-28T22:46:27.814Z,8.70
2022-08-28T22:48:54.657Z,3.97
2022-08-28T22:51:21.360Z,4.43
2022-08-28T22:53:48.678Z,3.85
2022-08-28T22:56:17.260Z,12.02
2022-08-28T22:58:44.625Z,3.53
2022-08-28T23:01:15.800Z,2.88
2022-08-28T23:03:42.733Z,3.58
2022-08-28T23:06:09.554Z,2.60
2022-08-28T23:08:36.504Z,5.00
2022-08-28T23:11:03.873Z,8.40
2022-08-28T23:13:31.238Z,4.63
2022-08-28T23:15:58.449Z,2.78
2022-08-28T23:18:25.204Z,5.00
2022-08-28T23:20:52.465Z,3.92
2022-08-28T23:23:19.509Z,5.78
2022-08-28T23:25:46.246Z,4.30
2022-08-28T23:28:13.131Z,7.40
2022-08-28T23:30:41.310Z,3.67
2022-08-28T23:33:19.735Z,6.75
2022-08-28T23:35:50.272Z,5.32
2022-08-28T23:38:17.123Z,6.18
2022-08-28T23:40:44.499Z,5.40
2022-08-28T23:43:11.787Z,4.95
2022-08-28T23:45:42.266Z,5.30
2022-08-28T23:48:09.650Z,6.25
2022-08-28T23:50:39.413Z,5.65
2022-08-28T23:53:08.390Z,3.47
2022-08-28T23:55:36.105Z,3.95
2022-08-28T23:58:03.086Z,5.45
